createdAt,value
2023-02-26T06:36:01.226Z,100428.53
2023-02-26T07:47:19.094Z,100468.16
2023-02-26T08:38:03.399Z,100588.84
2023-02-26T08:52:25.310Z,100625.97
2023-02-26T09:11:04.533Z,100655.88
2023-02-26T09:18:46.395Z,100637.06
2023-02-26T09:25:52.009Z,100645.13
2023-02-26T09:28:51.657Z,100645.13
2023-02-26T09:42:38.124Z,100661.69
2023-02-26T09:45:11.692Z,100661.34
2023-02-26T09:47:46.648Z,100655.47
2023-02-26T09:50:21.772Z,100653.66
2023-02-26T09:52:58.458Z,100664.38
2023-02-26T09:55:36.043Z,100675.63
2023-02-26T09:58:14.620Z,100637.88
2023-02-26T10:00:52.440Z,100672.94
2023-02-26T10:03:38.373Z,100662.91
2023-02-26T10:06:23.260Z,100678.16
2023-02-26T10:09:11.931Z,100671.44
2023-02-26T10:11:48.419Z,100661.78
2023-02-26T10:14:31.396Z,100697.47
2023-02-26T10:17:03.523Z,100669.03
2023-02-26T10:19:42.720Z,100694.59
2023-02-26T10:22:21.476Z,100684.38
2023-02-26T10:24:57.862Z,100681.53
2023-02-26T10:27:41.699Z,100700.34
2023-02-26T10:30:23.965Z,100697.97
2023-02-26T10:33:04.721Z,100684.53
2023-02-26T10:35:38.745Z,100674.81
2023-02-26T10:38:12.798Z,100683.78
2023-02-26T10:40:54.470Z,100694.72
2023-02-26T10:43:31.946Z,100701.63
2023-02-26T10:46:16.682Z,100698.44
2023-02-26T10:48:56.639Z,100710.84
2023-02-26T10:51:32.919Z,100697.13
2023-02-26T10:54:05.536Z,100715.06
2023-02-26T10:56:35.643Z,100718.75
2023-02-26T10:59:04.448Z,100714.72
2023-02-26T11:01:39.450Z,100724.94
2023-02-26T11:04:11.203Z,100719.97
2023-02-26T11:06:47.865Z,100733.22
2023-02-26T11:09:26.217Z,100736.84
2023-02-26T11:11:58.371Z,100736.03
2023-02-26T11:14:29.861Z,100749.00
2023-02-26T11:17:09.959Z,100736.94
2023-02-26T11:19:41.556Z,100734.22
2023-02-26T11:22:15.102Z,100722.44
2023-02-26T11:24:50.314Z,100718.44
2023-02-26T11:27:23.046Z,100697.94
2023-02-26T11:30:02.908Z,100735.03
2023-02-26T11:32:35.967Z,100733.28
2023-02-26T11:35:09.627Z,100729.25
2023-02-26T11:37:40.748Z,100737.53
2023-02-26T11:40:17.282Z,100727.78
2023-02-26T11:43:02.526Z,100736.19
2023-02-26T11:45:31.065Z,100731.13
2023-02-26T11:48:05.259Z,100722.22
2023-02-26T11:50:45.162Z,100701.59
2023-02-26T11:53:19.588Z,100681.44
2023-02-26T11:55:52.986Z,100717.16
2023-02-26T11:58:24.744Z,100712.91
2023-02-26T12:00:55.584Z,100687.06
2023-02-26T12:03:34.252Z,100716.97
2023-02-26T12:06:05.069Z,100682.81
2023-02-26T12:08:38.530Z,100690.56
2023-02-26T12:11:20.396Z,100704.38
2023-02-26T12:14:03.979Z,100719.72
2023-02-26T12:16:42.629Z,100720.06
2023-02-26T12:19:24.494Z,100717.19
2023-02-26T12:22:15.365Z,100719.78
2023-02-26T12:25:21.770Z,100727.13
2023-02-26T12:28:18.224Z,100725.09
2023-02-26T12:31:05.473Z,100728.00
2023-02-26T12:33:44.114Z,100748.16
2023-02-26T12:36:47.659Z,100729.78
2023-02-26T12:39:34.397Z,100723.69
2023-02-26T12:42:15.654Z,100719.50
2023-02-26T12:45:10.791Z,100723.97
2023-02-26T12:47:55.394Z,100714.06
2023-02-26T12:50:33.535Z,100738.03
2023-02-26T12:53:30.566Z,100729.78
2023-02-26T12:56:12.323Z,100653.50
2023-02-26T12:58:54.446Z,100743.56
2023-02-26T13:02:00.618Z,100698.25
2023-02-26T13:04:55.130Z,100732.06
2023-02-26T13:07:49.773Z,100744.50
2023-02-26T13:10:29.963Z,100748.31
2023-02-26T13:13:10.738Z,100741.94
2023-02-26T13:15:59.189Z,100748.16
2023-02-26T13:18:39.026Z,100751.44
2023-02-26T13:21:18.763Z,100744.44
2023-02-26T13:23:52.762Z,100751.50
2023-02-26T13:26:28.323Z,100738.53
2023-02-26T13:29:00.005Z,100748.13
2023-02-26T13:31:34.004Z,100740.34
2023-02-26T13:34:11.557Z,100740.16
2023-02-26T13:36:42.317Z,100749.22
2023-02-26T13:39:38.809Z,100748.00
2023-02-26T13:42:20.683Z,100755.84
2023-02-26T13:44:58.429Z,100745.72
2023-02-26T13:47:42.585Z,100751.56
2023-02-26T13:50:41.104Z,100755.47
2023-02-26T13:53:39.078Z,100748.72
2023-02-26T13:56:18.142Z,100757.28
2023-02-26T13:58:53.121Z,100743.44
2023-02-26T14:01:28.680Z,100757.25
2023-02-26T14:04:10.885Z,100754.22
2023-02-26T14:06:43.646Z,100743.28
2023-02-26T14:09:53.602Z,100751.03
2023-02-26T14:12:43.240Z,100754.66
2023-02-26T14:15:45.058Z,100737.19
2023-02-26T14:18:27.543Z,100723.00
2023-02-26T14:21:41.050Z,100739.03
2023-02-26T14:24:23.159Z,100749.72
2023-02-26T14:27:08.903Z,100738.91
2023-02-26T14:29:42.311Z,100739.16
2023-02-26T14:32:17.935Z,100750.66
2023-02-26T14:34:55.641Z,100750.38
2023-02-26T14:37:32.012Z,100758.84
2023-02-26T14:40:09.012Z,100753.13
2023-02-26T14:42:45.367Z,100763.88
2023-02-26T14:45:32.797Z,100759.63
2023-02-26T14:48:03.482Z,100767.72
2023-02-26T14:50:45.030Z,100772.25
2023-02-26T14:53:46.651Z,100783.22
2023-02-26T14:56:31.097Z,100780.88
2023-02-26T14:59:21.477Z,100786.13
2023-02-26T15:01:55.557Z,100781.16
2023-02-26T15:04:51.080Z,100789.53
2023-02-26T15:07:45.844Z,100781.19
2023-02-26T15:10:27.157Z,100777.56
2023-02-26T15:13:22.868Z,100787.63
2023-02-26T15:16:00.834Z,100768.66
2023-02-26T15:19:01.359Z,100801.09
2023-02-26T15:21:48.578Z,100781.09
2023-02-26T15:24:17.224Z,100810.84
2023-02-26T15:26:54.249Z,100797.06
2023-02-26T15:29:28.927Z,100798.22
2023-02-26T15:32:03.566Z,100797.06
2023-02-26T15:34:35.877Z,100811.16
2023-02-26T15:37:07.787Z,100824.63
2023-02-26T15:42:45.010Z,100821.94
2023-02-26T15:45:26.414Z,100814.00
2023-02-26T15:48:01.806Z,100818.53
2023-02-26T15:50:38.326Z,100799.03
2023-02-26T15:53:12.515Z,100831.47
2023-02-26T15:55:49.339Z,100836.97
2023-02-26T15:58:36.441Z,100828.53
2023-02-26T16:01:12.943Z,100841.75
2023-02-26T16:03:42.683Z,100840.31
2023-02-26T16:06:20.388Z,100838.63
2023-02-26T16:08:54.476Z,100834.25
2023-02-26T16:11:36.488Z,100832.63
2023-02-26T16:14:16.813Z,100838.75
2023-02-26T16:16:56.746Z,100845.16
2023-02-26T16:19:52.187Z,100837.63
2023-02-26T16:22:27.748Z,100863.25
2023-02-26T16:25:07.096Z,100844.69
2023-02-26T16:27:40.468Z,100863.41
2023-02-26T16:30:29.751Z,100862.19
2023-02-26T16:33:06.185Z,100867.69
2023-02-26T16:35:45.989Z,100868.38
2023-02-26T16:38:23.235Z,100850.88
2023-02-26T16:41:05.176Z,100871.09
2023-02-26T16:43:44.211Z,100873.69
2023-02-26T16:46:27.721Z,100888.72
2023-02-26T16:49:05.541Z,100893.69
2023-02-26T16:51:39.988Z,100892.09
2023-02-26T16:54:30.333Z,100871.34
2023-02-26T16:59:55.864Z,100895.63
2023-02-26T17:02:27.984Z,100909.34
2023-02-26T17:05:00.435Z,100873.47
2023-02-26T17:07:35.299Z,100917.09
2023-02-26T17:10:19.507Z,100905.91
2023-02-26T17:15:38.813Z,100914.06
2023-02-26T17:18:09.657Z,100904.75
2023-02-26T17:20:39.956Z,100919.31
2023-02-26T17:23:09.954Z,100931.00
2023-02-26T17:25:41.593Z,100929.06
2023-02-26T17:28:22.059Z,100924.72
2023-02-26T17:30:53.799Z,100935.81
2023-02-26T17:33:26.562Z,100930.75
2023-02-26T17:36:10.792Z,100939.78
2023-02-26T17:38:43.636Z,100956.91
2023-02-26T17:41:15.642Z,100903.50
2023-02-26T17:43:43.869Z,100964.09
2023-02-26T17:46:13.697Z,100971.28
2023-02-26T17:48:45.010Z,100958.72
2023-02-26T17:51:16.076Z,100977.66
2023-02-26T17:53:47.705Z,100982.94
2023-02-26T17:56:24.193Z,100942.16
2023-02-26T17:58:57.382Z,100983.59
2023-02-26T18:01:43.854Z,100952.56
2023-02-26T18:04:14.851Z,100979.91
2023-02-26T18:06:43.606Z,100999.97
2023-02-26T18:09:17.348Z,100998.81
2023-02-26T18:11:46.152Z,100948.72
2023-02-26T18:14:14.382Z,100996.81
2023-02-26T18:16:47.417Z,100969.25
2023-02-26T18:19:16.898Z,101004.25
2023-02-26T18:21:45.991Z,101000.03
2023-02-26T18:24:17.771Z,100993.06
2023-02-26T18:26:54.339Z,100988.41
2023-02-26T18:29:42.048Z,101002.66
2023-02-26T18:32:27.291Z,101007.63
2023-02-26T18:35:00.968Z,101016.69
2023-02-26T18:37:37.014Z,100964.28
2023-02-26T18:40:09.702Z,100993.31
2023-02-26T18:42:39.732Z,100997.34
2023-02-26T18:45:11.362Z,101010.75
2023-02-26T18:47:40.871Z,101021.97
2023-02-26T18:50:16.391Z,101002.06
2023-02-26T18:52:49.572Z,101016.53
2023-02-26T18:55:23.317Z,101023.13
2023-02-26T18:57:53.162Z,101008.63
2023-02-26T19:00:23.787Z,101027.84
2023-02-26T19:02:52.449Z,101010.63
2023-02-26T19:05:30.612Z,100995.44
2023-02-26T19:08:00.130Z,101041.72
2023-02-26T19:10:35.545Z,101035.22
2023-02-26T19:13:04.528Z,101037.75
2023-02-26T19:15:33.442Z,101022.09
2023-02-26T19:18:02.347Z,101015.19
2023-02-26T19:20:35.051Z,101050.53
2023-02-26T19:23:07.349Z,100991.53
2023-02-26T19:25:42.702Z,101014.06
2023-02-26T19:28:12.777Z,101044.84
2023-02-26T19:30:42.854Z,101038.88
2023-02-26T19:33:17.049Z,101047.00
2023-02-26T19:35:52.415Z,101037.94
2023-02-26T19:38:23.486Z,101066.91
2023-02-26T19:40:52.919Z,101047.47
2023-02-26T19:43:23.520Z,101078.22
2023-02-26T19:45:51.658Z,101068.97
2023-02-26T19:48:26.221Z,101077.25
2023-02-26T19:50:58.460Z,101068.56
2023-02-26T19:53:26.713Z,101041.59
2023-02-26T19:55:55.086Z,101053.66
2023-02-26T19:58:25.823Z,101098.38
2023-02-26T20:03:53.085Z,101094.22
2023-02-26T20:06:30.307Z,101020.38
2023-02-26T20:09:19.049Z,101072.06
2023-02-26T20:11:49.337Z,101103.97
2023-02-26T20:14:21.750Z,101096.69
2023-02-26T20:16:53.105Z,101111.03
2023-02-26T20:26:19.079Z,101028.25
2023-02-26T20:28:53.278Z,101117.78
2023-02-26T20:31:21.460Z,101129.47
2023-02-26T20:33:49.706Z,101124.94
2023-02-26T20:36:18.669Z,101122.97
2023-02-26T20:38:50.950Z,101137.91
2023-02-26T20:41:20.949Z,101139.47
2023-02-26T20:43:49.002Z,101135.31
2023-02-26T20:46:18.708Z,101139.69
2023-02-26T20:48:48.602Z,101053.63
2023-02-26T20:51:22.810Z,101104.19
2023-02-26T20:53:51.543Z,101143.44
2023-02-26T20:56:23.762Z,101125.13
2023-02-26T20:58:58.165Z,101149.81
2023-02-26T21:17:00.709Z,101158.47
2023-02-26T21:19:29.603Z,101161.00
2023-02-26T21:21:58.884Z,101106.66
2023-02-26T21:24:42.217Z,101154.28
2023-02-26T21:27:12.637Z,101164.81
2023-02-26T21:29:41.460Z,101153.69
2023-02-26T21:32:12.020Z,101157.19
2023-02-26T21:34:40.016Z,101093.09
2023-02-26T21:37:13.235Z,101153.97
2023-02-26T21:39:43.168Z,101160.72
2023-02-26T21:42:17.196Z,101164.78
2023-02-26T21:44:48.637Z,101157.97
2023-02-26T21:47:19.736Z,101173.69
2023-02-26T21:49:48.345Z,101096.50
2023-02-26T21:52:16.544Z,101165.97
2023-02-26T21:54:48.423Z,101149.91
2023-02-26T21:57:31.650Z,101156.84
2023-02-26T22:02:48.148Z,101159.34
2023-02-26T22:05:17.148Z,101161.31
2023-02-26T22:07:46.660Z,101161.72
2023-02-26T22:13:00.480Z,101087.97
2023-02-26T22:15:34.355Z,101132.81
2023-02-26T22:18:05.588Z,101159.19
2023-02-26T22:20:35.646Z,101163.75
2023-02-26T22:23:04.731Z,101154.16
2023-02-26T22:25:45.522Z,101150.25
2023-02-26T22:28:14.003Z,101149.13
2023-02-26T22:30:47.425Z,101167.97
2023-02-26T22:33:20.953Z,101126.25
2023-02-26T22:35:51.304Z,101123.41
2023-02-26T22:38:19.885Z,101164.53
2023-02-26T22:40:52.446Z,101145.78
2023-02-26T22:43:34.534Z,101169.50
2023-02-26T22:46:05.983Z,101116.00
2023-02-26T22:48:35.989Z,101162.78
2023-02-26T22:51:04.733Z,101159.66
2023-02-26T22:53:32.883Z,101141.88
2023-02-26T22:56:02.927Z,101137.41
2023-02-26T22:58:35.034Z,101122.97
2023-02-26T23:01:05.501Z,101161.47
2023-02-26T23:03:35.640Z,101152.00
2023-02-26T23:06:04.832Z,101176.22
2023-02-26T23:08:36.939Z,101102.25
2023-02-26T23:11:06.072Z,101162.44
2023-02-26T23:13:36.953Z,101180.09
2023-02-26T23:16:07.269Z,101149.56
2023-02-26T23:18:38.345Z,101155.94
2023-02-26T23:21:10.283Z,101165.91
2023-02-26T23:23:38.534Z,101180.50
2023-02-26T23:26:08.273Z,101163.00
2023-02-26T23:28:41.093Z,101195.81
2023-02-26T23:31:09.746Z,101140.06
2023-02-26T23:33:40.175Z,101188.88
2023-02-26T23:36:09.730Z,101186.25
2023-02-26T23:38:38.916Z,101187.28
2023-02-26T23:41:07.416Z,101194.34
2023-02-26T23:43:36.039Z,101185.81
2023-02-26T23:46:07.710Z,101198.53
2023-02-26T23:48:35.949Z,101182.72
2023-02-26T23:51:07.828Z,101171.19
2023-02-26T23:53:36.057Z,101199.28
2023-02-26T23:56:05.751Z,101181.94
2023-02-26T23:58:37.298Z,101207.47
